Aérodrome :
LOGIN :

S'inscrire | Disclaimer

   EN    FR    IT 

 










Légende :    VFR   VFR Marginal   IFR   IFR Intensif   IFR Très Intensif
Visi : 
Plafond : 
>= 8 km
>= 3000ft
5 à 8 km
1000 à 3000 ft
1500m à 5 km
500 à 1000 ft
800 à 1500m
200 à 500 ft
< 800m
< 200 ft
Symboles :   Orages  Brouillard  Fortes neiges  Fortes précipitations  Vent > 20 kt
SIGMETs :   Divers  Orages  Givrage  Turbulence  Onde Orograph.  Cendres Volcan.






- Altitude de l'aérodrome : 75 ft
- Code IATA : YEO


EGDY - RNAS Yeovilton

DERNIER METAR :
  • 211020Z 17001KT 0100 FZFG VV/// M03/M03 Q1043 BECMG 3500 BR RMK RED BECMG YLO1

METARs EXPIRÉS :
  • 210950Z 26001KT 0100 FZFG VV/// M03/M03 Q1043 BECMG 3500 BR RMK RED BECMG YLO1
  • 210850Z 31002KT 0100 FZFG VV/// M03/M04 Q1043 NOSIG RMK RED RED
  • 210820Z 17001KT 0100 FZFG M03/M04 Q1043 NOSIG RMK RED RED
  • 210750Z 15001KT 0100 FZFG VV/// M03/M03 Q1043 NOSIG RMK RED RED

TAF TAF EGDY
Valide du 21 à 09h jusqu'au 21 à 18h UTC


210734Z 2109/2118 VRB03KT 0200 FZFG VV///
BECMG 2110/2112 6000 BR NSC
BECMG 2112/2114 9999 NSW
TEMPO 2112/2116 SCT008



MET'MAP, la Météo Aéronautique d'un coup d'oeil ! - Copyright ORBIFLY Décembre 2007 - Disclaimer

ORBIFLY MET'MAP TEAM :

Programmation & Développement : Alexandra Zaïnal
Sur une idée originale de : Baudouin d'Aumeries
Assistance à la programmation : Marc-Olivier Méhu
Soutien technique & logistique : Manuel Goepfert

Contact : metmap@orbifly.com




SOURCES & CREDITS :

   NOAA